sensor_id;sensor_type;location;lat;lon;timestamp;temperature;humidity
210;DHT22;90;48.810;9.120;2023-05-15T00:01:16;12.40;83.40
210;DHT22;90;48.810;9.120;2023-05-15T00:03:43;12.40;83.40
210;DHT22;90;48.810;9.120;2023-05-15T00:06:09;12.30;83.50
210;DHT22;90;48.810;9.120;2023-05-15T00:08:38;12.30;83.70
210;DHT22;90;48.810;9.120;2023-05-15T00:11:04;12.30;83.90
210;DHT22;90;48.810;9.120;2023-05-15T00:13:31;12.30;84.10
210;DHT22;90;48.810;9.120;2023-05-15T00:15:58;12.30;84.10
210;DHT22;90;48.810;9.120;2023-05-15T00:18:25;12.20;84.00
210;DHT22;90;48.810;9.120;2023-05-15T00:20:51;12.40;83.60
210;DHT22;90;48.810;9.120;2023-05-15T00:23:18;12.30;83.40
210;DHT22;90;48.810;9.120;2023-05-15T00:25:46;12.20;83.60
210;DHT22;90;48.810;9.120;2023-05-15T00:28:13;12.10;83.70
210;DHT22;90;48.810;9.120;2023-05-15T00:30:39;12.10;83.70
210;DHT22;90;48.810;9.120;2023-05-15T00:33:06;12.10;84.20
210;DHT22;90;48.810;9.120;2023-05-15T00:35:33;12.00;84.40
210;DHT22;90;48.810;9.120;2023-05-15T00:38:00;12.00;84.60
210;DHT22;90;48.810;9.120;2023-05-15T00:40:27;12.00;84.70
210;DHT22;90;48.810;9.120;2023-05-15T00:42:56;12.00;84.60
210;DHT22;90;48.810;9.120;2023-05-15T00:45:23;12.00;84.70
210;DHT22;90;48.810;9.120;2023-05-15T00:47:52;12.00;84.70
210;DHT22;90;48.810;9.120;2023-05-15T00:50:20;12.10;84.70
210;DHT22;90;48.810;9.120;2023-05-15T00:52:47;12.10;84.60
210;DHT22;90;48.810;9.120;2023-05-15T00:55:14;12.10;84.60
210;DHT22;90;48.810;9.120;2023-05-15T00:57:42;12.10;84.50
210;DHT22;90;48.810;9.120;2023-05-15T01:00:11;12.10;84.50
210;DHT22;90;48.810;9.120;2023-05-15T01:02:41;12.20;84.80
210;DHT22;90;48.810;9.120;2023-05-15T01:05:08;12.20;85.00
210;DHT22;90;48.810;9.120;2023-05-15T01:07:51;12.20;84.90
210;DHT22;90;48.810;9.120;2023-05-15T01:10:20;12.20;84.90
210;DHT22;90;48.810;9.120;2023-05-15T01:12:49;12.20;84.90
210;DHT22;90;48.810;9.120;2023-05-15T01:15:19;12.20;84.90
210;DHT22;90;48.810;9.120;2023-05-15T01:17:46;12.10;85.00
210;DHT22;90;48.810;9.120;2023-05-15T01:20:16;12.10;85.10
210;DHT22;90;48.810;9.120;2023-05-15T01:22:50;12.20;85.40
210;DHT22;90;48.810;9.120;2023-05-15T01:25:48;12.20;85.10
210;DHT22;90;48.810;9.120;2023-05-15T01:28:22;12.20;85.10
210;DHT22;90;48.810;9.120;2023-05-15T01:30:52;12.10;85.20
210;DHT22;90;48.810;9.120;2023-05-15T01:33:24;12.10;85.20
210;DHT22;90;48.810;9.120;2023-05-15T01:35:57;12.10;85.30
210;DHT22;90;48.810;9.120;2023-05-15T01:38:29;12.10;85.00
210;DHT22;90;48.810;9.120;2023-05-15T01:41:03;12.10;85.00
210;DHT22;90;48.810;9.120;2023-05-15T01:43:34;12.10;85.10
210;DHT22;90;48.810;9.120;2023-05-15T01:46:05;12.10;85.20
210;DHT22;90;48.810;9.120;2023-05-15T01:48:32;12.10;85.10
210;DHT22;90;48.810;9.120;2023-05-15T01:51:02;12.10;85.10
210;DHT22;90;48.810;9.120;2023-05-15T01:53:31;12.10;85.10
210;DHT22;90;48.810;9.120;2023-05-15T01:55:59;12.00;85.40
210;DHT22;90;48.810;9.120;2023-05-15T01:58:27;12.10;85.30
210;DHT22;90;48.810;9.120;2023-05-15T02:00:56;12.00;85.30
210;DHT22;90;48.810;9.120;2023-05-15T02:03:23;12.10;85.40
210;DHT22;90;48.810;9.120;2023-05-15T02:05:50;12.10;85.30
210;DHT22;90;48.810;9.120;2023-05-15T02:08:21;12.10;85.30
210;DHT22;90;48.810;9.120;2023-05-15T02:10:50;12.10;85.40
210;DHT22;90;48.810;9.120;2023-05-15T02:13:17;12.10;85.30
210;DHT22;90;48.810;9.120;2023-05-15T02:15:44;12.10;85.30
210;DHT22;90;48.810;9.120;2023-05-15T02:18:13;12.00;85.40
210;DHT22;90;48.810;9.120;2023-05-15T02:20:40;12.00;85.40
210;DHT22;90;48.810;9.120;2023-05-15T02:23:07;12.10;85.40
210;DHT22;90;48.810;9.120;2023-05-15T02:25:40;12.10;85.30
210;DHT22;90;48.810;9.120;2023-05-15T02:28:11;12.00;85.50
210;DHT22;90;48.810;9.120;2023-05-15T02:30:45;12.00;85.80
210;DHT22;90;48.810;9.120;2023-05-15T02:33:28;12.10;85.80
210;DHT22;90;48.810;9.120;2023-05-15T02:35:59;12.00;85.70
210;DHT22;90;48.810;9.120;2023-05-15T02:38:29;12.10;85.60
210;DHT22;90;48.810;9.120;2023-05-15T02:40:57;12.10;85.30
210;DHT22;90;48.810;9.120;2023-05-15T02:43:25;12.10;85.30
210;DHT22;90;48.810;9.120;2023-05-15T02:45:53;12.20;85.40
210;DHT22;90;48.810;9.120;2023-05-15T02:48:22;12.20;85.50
210;DHT22;90;48.810;9.120;2023-05-15T02:50:50;12.20;85.70
210;DHT22;90;48.810;9.120;2023-05-15T02:53:17;12.10;85.80
210;DHT22;90;48.810;9.120;2023-05-15T02:55:44;12.20;86.10
210;DHT22;90;48.810;9.120;2023-05-15T02:58:11;12.20;86.00
210;DHT22;90;48.810;9.120;2023-05-15T03:00:37;12.20;85.90
210;DHT22;90;48.810;9.120;2023-05-15T03:03:04;12.20;85.80
210;DHT22;90;48.810;9.120;2023-05-15T03:05:32;12.20;85.70
210;DHT22;90;48.810;9.120;2023-05-15T03:07:59;12.10;85.90
210;DHT22;90;48.810;9.120;2023-05-15T03:10:27;12.20;86.10
210;DHT22;90;48.810;9.120;2023-05-15T03:12:55;12.20;85.90
210;DHT22;90;48.810;9.120;2023-05-15T03:15:22;12.20;85.50
210;DHT22;90;48.810;9.120;2023-05-15T03:17:49;12.30;85.30
210;DHT22;90;48.810;9.120;2023-05-15T03:20:16;12.30;84.90
210;DHT22;90;48.810;9.120;2023-05-15T03:22:44;12.30;84.90
210;DHT22;90;48.810;9.120;2023-05-15T03:25:11;12.30;84.80
210;DHT22;90;48.810;9.120;2023-05-15T03:27:38;12.40;84.70
210;DHT22;90;48.810;9.120;2023-05-15T03:30:05;12.50;84.80
210;DHT22;90;48.810;9.120;2023-05-15T03:32:32;12.50;84.90
210;DHT22;90;48.810;9.120;2023-05-15T03:34:59;12.50;85.10
210;DHT22;90;48.810;9.120;2023-05-15T03:37:26;12.50;85.30
210;DHT22;90;48.810;9.120;2023-05-15T03:39:54;12.50;85.20
210;DHT22;90;48.810;9.120;2023-05-15T03:42:21;12.50;85.20
210;DHT22;90;48.810;9.120;2023-05-15T03:44:49;12.50;85.40
210;DHT22;90;48.810;9.120;2023-05-15T03:47:16;12.50;85.30
210;DHT22;90;48.810;9.120;2023-05-15T03:49:44;12.50;85.50
210;DHT22;90;48.810;9.120;2023-05-15T03:52:11;12.50;85.30
210;DHT22;90;48.810;9.120;2023-05-15T03:54:38;12.50;85.30
210;DHT22;90;48.810;9.120;2023-05-15T03:57:06;12.50;85.30
210;DHT22;90;48.810;9.120;2023-05-15T03:59:33;12.50;85.10
210;DHT22;90;48.810;9.120;2023-05-15T04:01:59;12.50;84.70
210;DHT22;90;48.810;9.120;2023-05-15T04:04:26;12.60;85.00
210;DHT22;90;48.810;9.120;2023-05-15T04:06:53;12.70;84.80
210;DHT22;90;48.810;9.120;2023-05-15T04:09:19;12.70;85.80
210;DHT22;90;48.810;9.120;2023-05-15T04:11:46;12.70;85.70
210;DHT22;90;48.810;9.120;2023-05-15T04:14:14;12.70;85.50
210;DHT22;90;48.810;9.120;2023-05-15T04:16:41;12.70;85.40
210;DHT22;90;48.810;9.120;2023-05-15T04:19:08;12.70;85.90
210;DHT22;90;48.810;9.120;2023-05-15T04:21:34;12.80;86.10
210;DHT22;90;48.810;9.120;2023-05-15T04:24:01;12.70;85.90
210;DHT22;90;48.810;9.120;2023-05-15T04:26:28;12.80;86.60
210;DHT22;90;48.810;9.120;2023-05-15T04:28:55;12.80;85.60
210;DHT22;90;48.810;9.120;2023-05-15T04:31:23;12.90;85.30
210;DHT22;90;48.810;9.120;2023-05-15T04:33:51;12.90;84.90
210;DHT22;90;48.810;9.120;2023-05-15T04:36:18;13.00;84.60
210;DHT22;90;48.810;9.120;2023-05-15T04:38:45;13.00;84.50
210;DHT22;90;48.810;9.120;2023-05-15T04:41:12;13.00;84.70
210;DHT22;90;48.810;9.120;2023-05-15T04:43:38;13.00;84.70
210;DHT22;90;48.810;9.120;2023-05-15T04:46:05;13.10;84.60
210;DHT22;90;48.810;9.120;2023-05-15T04:48:33;13.10;84.40
210;DHT22;90;48.810;9.120;2023-05-15T04:50:59;13.10;84.40
210;DHT22;90;48.810;9.120;2023-05-15T04:53:26;13.10;84.50
210;DHT22;90;48.810;9.120;2023-05-15T04:55:53;13.10;84.70
210;DHT22;90;48.810;9.120;2023-05-15T04:58:20;13.10;84.90
210;DHT22;90;48.810;9.120;2023-05-15T05:00:46;13.10;85.30
210;DHT22;90;48.810;9.120;2023-05-15T05:03:13;13.20;85.30
210;DHT22;90;48.810;9.120;2023-05-15T05:05:41;13.20;85.20
210;DHT22;90;48.810;9.120;2023-05-15T05:08:08;13.20;85.40
210;DHT22;90;48.810;9.120;2023-05-15T05:10:34;13.10;85.60
210;DHT22;90;48.810;9.120;2023-05-15T05:13:01;13.10;85.90
210;DHT22;90;48.810;9.120;2023-05-15T05:15:28;13.10;85.90
210;DHT22;90;48.810;9.120;2023-05-15T05:17:54;13.20;87.40
210;DHT22;90;48.810;9.120;2023-05-15T05:20:21;13.20;86.10
210;DHT22;90;48.810;9.120;2023-05-15T05:22:49;13.30;85.80
210;DHT22;90;48.810;9.120;2023-05-15T05:25:16;13.70;88.10
210;DHT22;90;48.810;9.120;2023-05-15T05:27:43;13.80;84.70
210;DHT22;90;48.810;9.120;2023-05-15T05:30:10;13.80;83.80
210;DHT22;90;48.810;9.120;2023-05-15T05:32:37;13.70;84.00
210;DHT22;90;48.810;9.120;2023-05-15T05:35:04;13.70;84.10
210;DHT22;90;48.810;9.120;2023-05-15T05:37:31;13.80;84.20
210;DHT22;90;48.810;9.120;2023-05-15T05:39:59;13.70;84.40
210;DHT22;90;48.810;9.120;2023-05-15T05:42:26;13.80;83.90
210;DHT22;90;48.810;9.120;2023-05-15T05:44:52;13.80;84.30
210;DHT22;90;48.810;9.120;2023-05-15T05:47:19;13.80;84.00
210;DHT22;90;48.810;9.120;2023-05-15T05:49:46;13.80;84.00
210;DHT22;90;48.810;9.120;2023-05-15T05:52:12;13.80;84.30
210;DHT22;90;48.810;9.120;2023-05-15T05:54:40;13.90;84.00
210;DHT22;90;48.810;9.120;2023-05-15T05:57:08;14.00;83.60
210;DHT22;90;48.810;9.120;2023-05-15T05:59:35;14.00;83.90
210;DHT22;90;48.810;9.120;2023-05-15T06:02:02;14.00;83.60
210;DHT22;90;48.810;9.120;2023-05-15T06:04:30;14.10;83.00
210;DHT22;90;48.810;9.120;2023-05-15T06:06:57;14.10;82.70
210;DHT22;90;48.810;9.120;2023-05-15T06:09:24;14.20;82.90
210;DHT22;90;48.810;9.120;2023-05-15T06:11:50;14.10;82.70
210;DHT22;90;48.810;9.120;2023-05-15T06:14:18;14.10;82.90
210;DHT22;90;48.810;9.120;2023-05-15T06:16:45;14.10;82.80
210;DHT22;90;48.810;9.120;2023-05-15T06:19:12;14.20;82.90
210;DHT22;90;48.810;9.120;2023-05-15T06:21:38;14.30;82.20
210;DHT22;90;48.810;9.120;2023-05-15T06:24:05;14.40;81.80
210;DHT22;90;48.810;9.120;2023-05-15T06:26:32;14.30;81.80
210;DHT22;90;48.810;9.120;2023-05-15T06:28:59;14.30;81.70
210;DHT22;90;48.810;9.120;2023-05-15T06:31:27;14.40;81.00
210;DHT22;90;48.810;9.120;2023-05-15T06:33:53;14.40;80.70
210;DHT22;90;48.810;9.120;2023-05-15T06:36:20;14.50;80.90
210;DHT22;90;48.810;9.120;2023-05-15T06:38:47;14.50;80.60
210;DHT22;90;48.810;9.120;2023-05-15T06:41:13;14.50;80.60
210;DHT22;90;48.810;9.120;2023-05-15T06:43:40;14.60;80.60
210;DHT22;90;48.810;9.120;2023-05-15T06:46:07;14.60;80.40
210;DHT22;90;48.810;9.120;2023-05-15T06:48:35;14.60;80.20
210;DHT22;90;48.810;9.120;2023-05-15T06:51:02;14.60;79.70
210;DHT22;90;48.810;9.120;2023-05-15T06:53:29;14.70;80.10
210;DHT22;90;48.810;9.120;2023-05-15T06:55:56;14.70;79.30
210;DHT22;90;48.810;9.120;2023-05-15T06:58:23;14.70;78.90
210;DHT22;90;48.810;9.120;2023-05-15T07:00:49;14.80;79.20
210;DHT22;90;48.810;9.120;2023-05-15T07:03:16;14.90;79.40
210;DHT22;90;48.810;9.120;2023-05-15T07:05:44;15.00;78.70
210;DHT22;90;48.810;9.120;2023-05-15T07:08:11;15.10;78.30
210;DHT22;90;48.810;9.120;2023-05-15T07:10:38;15.10;78.10
210;DHT22;90;48.810;9.120;2023-05-15T07:13:05;15.20;78.10
210;DHT22;90;48.810;9.120;2023-05-15T07:15:31;15.30;79.00
210;DHT22;90;48.810;9.120;2023-05-15T07:17:58;15.30;77.40
210;DHT22;90;48.810;9.120;2023-05-15T07:20:25;15.40;76.60
210;DHT22;90;48.810;9.120;2023-05-15T07:22:53;15.30;76.30
210;DHT22;90;48.810;9.120;2023-05-15T07:25:19;15.30;76.60
210;DHT22;90;48.810;9.120;2023-05-15T07:27:46;15.30;76.30
210;DHT22;90;48.810;9.120;2023-05-15T07:30:13;15.30;75.80
210;DHT22;90;48.810;9.120;2023-05-15T07:32:40;15.40;74.70
210;DHT22;90;48.810;9.120;2023-05-15T07:35:08;15.40;74.70
210;DHT22;90;48.810;9.120;2023-05-15T07:37:35;15.50;75.30
210;DHT22;90;48.810;9.120;2023-05-15T07:40:05;15.50;75.60
210;DHT22;90;48.810;9.120;2023-05-15T07:42:32;15.70;76.10
210;DHT22;90;48.810;9.120;2023-05-15T07:44:58;15.70;75.20
210;DHT22;90;48.810;9.120;2023-05-15T07:47:25;15.60;75.10
210;DHT22;90;48.810;9.120;2023-05-15T07:49:52;15.70;75.50
210;DHT22;90;48.810;9.120;2023-05-15T07:52:18;15.70;76.00
210;DHT22;90;48.810;9.120;2023-05-15T07:54:45;15.80;75.80
210;DHT22;90;48.810;9.120;2023-05-15T07:57:13;15.90;74.90
210;DHT22;90;48.810;9.120;2023-05-15T07:59:40;15.90;74.90
210;DHT22;90;48.810;9.120;2023-05-15T08:02:07;15.90;75.10
210;DHT22;90;48.810;9.120;2023-05-15T08:04:34;16.00;75.00
210;DHT22;90;48.810;9.120;2023-05-15T08:07:00;16.10;74.70
210;DHT22;90;48.810;9.120;2023-05-15T08:09:27;16.10;73.40
210;DHT22;90;48.810;9.120;2023-05-15T08:11:55;16.10;73.60
210;DHT22;90;48.810;9.120;2023-05-15T08:14:23;16.00;73.20
210;DHT22;90;48.810;9.120;2023-05-15T08:16:50;16.10;72.20
210;DHT22;90;48.810;9.120;2023-05-15T08:19:16;16.20;72.70
210;DHT22;90;48.810;9.120;2023-05-15T08:21:43;16.20;72.50
210;DHT22;90;48.810;9.120;2023-05-15T08:24:10;16.30;72.20
210;DHT22;90;48.810;9.120;2023-05-15T08:26:37;16.30;73.00
210;DHT22;90;48.810;9.120;2023-05-15T08:29:03;16.50;73.10
210;DHT22;90;48.810;9.120;2023-05-15T08:31:31;16.60;72.90
210;DHT22;90;48.810;9.120;2023-05-15T08:33:58;16.70;72.70
210;DHT22;90;48.810;9.120;2023-05-15T08:36:25;16.70;71.70
210;DHT22;90;48.810;9.120;2023-05-15T08:38:52;16.80;71.40
210;DHT22;90;48.810;9.120;2023-05-15T08:41:27;16.80;70.90
210;DHT22;90;48.810;9.120;2023-05-15T08:43:56;16.80;70.60
210;DHT22;90;48.810;9.120;2023-05-15T08:46:23;16.70;70.40
210;DHT22;90;48.810;9.120;2023-05-15T08:48:52;16.80;68.90
210;DHT22;90;48.810;9.120;2023-05-15T08:51:20;16.80;68.20
210;DHT22;90;48.810;9.120;2023-05-15T08:53:48;17.00;67.90
210;DHT22;90;48.810;9.120;2023-05-15T08:56:15;17.00;69.50
210;DHT22;90;48.810;9.120;2023-05-15T08:58:44;17.10;69.20
210;DHT22;90;48.810;9.120;2023-05-15T09:01:11;17.20;68.60
210;DHT22;90;48.810;9.120;2023-05-15T09:03:39;17.20;69.10
210;DHT22;90;48.810;9.120;2023-05-15T09:06:09;17.10;69.20
210;DHT22;90;48.810;9.120;2023-05-15T09:08:36;17.10;70.20
210;DHT22;90;48.810;9.120;2023-05-15T09:11:03;16.90;71.50
210;DHT22;90;48.810;9.120;2023-05-15T09:13:32;17.00;71.70
210;DHT22;90;48.810;9.120;2023-05-15T09:15:59;17.10;71.20
210;DHT22;90;48.810;9.120;2023-05-15T09:18:25;17.20;70.70
210;DHT22;90;48.810;9.120;2023-05-15T09:20:52;17.20;69.60
210;DHT22;90;48.810;9.120;2023-05-15T09:23:26;17.30;66.60
210;DHT22;90;48.810;9.120;2023-05-15T09:25:53;17.20;66.30
210;DHT22;90;48.810;9.120;2023-05-15T09:28:25;17.30;66.40
210;DHT22;90;48.810;9.120;2023-05-15T09:30:56;17.30;67.00
210;DHT22;90;48.810;9.120;2023-05-15T09:33:27;17.40;66.80
210;DHT22;90;48.810;9.120;2023-05-15T09:35:54;17.60;66.70
210;DHT22;90;48.810;9.120;2023-05-15T09:38:21;17.70;67.10
210;DHT22;90;48.810;9.120;2023-05-15T09:40:49;17.80;67.00
210;DHT22;90;48.810;9.120;2023-05-15T09:43:16;17.90;66.20
210;DHT22;90;48.810;9.120;2023-05-15T09:45:46;17.80;65.60
210;DHT22;90;48.810;9.120;2023-05-15T09:48:13;17.80;66.70
210;DHT22;90;48.810;9.120;2023-05-15T09:50:40;17.80;66.90
210;DHT22;90;48.810;9.120;2023-05-15T09:53:10;17.70;66.50
210;DHT22;90;48.810;9.120;2023-05-15T09:55:38;17.70;66.20
210;DHT22;90;48.810;9.120;2023-05-15T09:58:09;17.70;66.30
210;DHT22;90;48.810;9.120;2023-05-15T10:00:36;17.90;65.90
210;DHT22;90;48.810;9.120;2023-05-15T10:03:04;17.90;68.70
210;DHT22;90;48.810;9.120;2023-05-15T10:05:31;18.00;66.40
210;DHT22;90;48.810;9.120;2023-05-15T10:07:59;18.10;66.40
210;DHT22;90;48.810;9.120;2023-05-15T10:10:27;18.00;65.20
210;DHT22;90;48.810;9.120;2023-05-15T10:12:55;18.00;64.90
210;DHT22;90;48.810;9.120;2023-05-15T10:15:28;18.10;66.70
210;DHT22;90;48.810;9.120;2023-05-15T10:17:54;18.20;67.60
210;DHT22;90;48.810;9.120;2023-05-15T10:20:24;18.30;65.10
210;DHT22;90;48.810;9.120;2023-05-15T10:22:52;18.50;63.60
210;DHT22;90;48.810;9.120;2023-05-15T10:25:25;18.50;63.30
210;DHT22;90;48.810;9.120;2023-05-15T10:27:53;18.50;63.50
210;DHT22;90;48.810;9.120;2023-05-15T10:30:22;18.60;64.80
210;DHT22;90;48.810;9.120;2023-05-15T10:32:51;18.60;62.40
210;DHT22;90;48.810;9.120;2023-05-15T10:35:18;18.40;62.60
210;DHT22;90;48.810;9.120;2023-05-15T10:37:47;18.40;62.10
210;DHT22;90;48.810;9.120;2023-05-15T10:40:15;18.60;62.30
210;DHT22;90;48.810;9.120;2023-05-15T10:42:44;18.60;61.40
210;DHT22;90;48.810;9.120;2023-05-15T10:45:11;18.70;60.60
210;DHT22;90;48.810;9.120;2023-05-15T10:47:39;18.80;61.70
210;DHT22;90;48.810;9.120;2023-05-15T10:50:10;18.80;61.70
210;DHT22;90;48.810;9.120;2023-05-15T10:52:38;18.60;60.30
210;DHT22;90;48.810;9.120;2023-05-15T10:55:06;18.60;59.40
210;DHT22;90;48.810;9.120;2023-05-15T10:57:33;18.60;60.30
210;DHT22;90;48.810;9.120;2023-05-15T11:00:00;18.70;58.70
210;DHT22;90;48.810;9.120;2023-05-15T11:02:28;18.70;58.60
210;DHT22;90;48.810;9.120;2023-05-15T11:04:56;18.90;58.80
210;DHT22;90;48.810;9.120;2023-05-15T11:07:24;18.80;58.70
210;DHT22;90;48.810;9.120;2023-05-15T11:09:51;18.80;58.00
210;DHT22;90;48.810;9.120;2023-05-15T11:12:18;18.90;57.90
210;DHT22;90;48.810;9.120;2023-05-15T11:15:18;18.90;57.80
210;DHT22;90;48.810;9.120;2023-05-15T11:18:00;19.00;58.20
210;DHT22;90;48.810;9.120;2023-05-15T11:20:37;19.10;58.30
210;DHT22;90;48.810;9.120;2023-05-15T11:23:06;19.20;57.50
210;DHT22;90;48.810;9.120;2023-05-15T11:25:34;19.30;55.00
210;DHT22;90;48.810;9.120;2023-05-15T11:28:02;19.30;54.70
210;DHT22;90;48.810;9.120;2023-05-15T11:30:36;19.40;54.90
210;DHT22;90;48.810;9.120;2023-05-15T11:33:04;19.50;54.20
210;DHT22;90;48.810;9.120;2023-05-15T11:35:36;19.50;55.50
210;DHT22;90;48.810;9.120;2023-05-15T11:38:04;19.70;54.50
210;DHT22;90;48.810;9.120;2023-05-15T11:40:45;19.70;50.90
210;DHT22;90;48.810;9.120;2023-05-15T11:43:16;19.60;51.40
210;DHT22;90;48.810;9.120;2023-05-15T11:45:46;19.80;55.10
210;DHT22;90;48.810;9.120;2023-05-15T11:48:14;19.80;52.90
210;DHT22;90;48.810;9.120;2023-05-15T11:50:42;19.60;53.30
210;DHT22;90;48.810;9.120;2023-05-15T11:53:10;19.40;54.30
210;DHT22;90;48.810;9.120;2023-05-15T11:55:38;19.30;54.90
210;DHT22;90;48.810;9.120;2023-05-15T11:58:10;19.50;54.00
210;DHT22;90;48.810;9.120;2023-05-15T12:00:37;19.60;54.30
210;DHT22;90;48.810;9.120;2023-05-15T12:03:03;19.70;52.00
210;DHT22;90;48.810;9.120;2023-05-15T12:05:30;19.90;52.80
210;DHT22;90;48.810;9.120;2023-05-15T12:07:57;19.90;53.20
210;DHT22;90;48.810;9.120;2023-05-15T12:10:24;19.80;54.20
210;DHT22;90;48.810;9.120;2023-05-15T12:12:51;19.80;54.40
210;DHT22;90;48.810;9.120;2023-05-15T12:15:19;19.80;54.50
210;DHT22;90;48.810;9.120;2023-05-15T12:17:45;19.90;54.40
210;DHT22;90;48.810;9.120;2023-05-15T12:20:15;20.00;51.30
210;DHT22;90;48.810;9.120;2023-05-15T12:22:42;20.00;50.60
210;DHT22;90;48.810;9.120;2023-05-15T12:25:10;20.20;48.80
210;DHT22;90;48.810;9.120;2023-05-15T12:27:38;20.20;49.20
210;DHT22;90;48.810;9.120;2023-05-15T12:30:06;20.30;49.00
210;DHT22;90;48.810;9.120;2023-05-15T12:32:36;20.40;49.80
210;DHT22;90;48.810;9.120;2023-05-15T12:35:04;20.30;49.90
210;DHT22;90;48.810;9.120;2023-05-15T12:37:31;20.40;50.10
210;DHT22;90;48.810;9.120;2023-05-15T12:40:00;20.30;51.70
210;DHT22;90;48.810;9.120;2023-05-15T12:42:29;20.20;53.30
210;DHT22;90;48.810;9.120;2023-05-15T12:44:56;20.10;52.20
210;DHT22;90;48.810;9.120;2023-05-15T12:47:23;20.20;52.00
210;DHT22;90;48.810;9.120;2023-05-15T12:49:55;20.60;50.80
210;DHT22;90;48.810;9.120;2023-05-15T12:52:21;20.50;50.50
210;DHT22;90;48.810;9.120;2023-05-15T12:54:49;20.30;51.10
210;DHT22;90;48.810;9.120;2023-05-15T12:57:16;20.10;50.70
210;DHT22;90;48.810;9.120;2023-05-15T12:59:43;19.90;52.10
210;DHT22;90;48.810;9.120;2023-05-15T13:02:11;19.90;51.00
210;DHT22;90;48.810;9.120;2023-05-15T13:04:38;19.80;50.70
210;DHT22;90;48.810;9.120;2023-05-15T13:07:06;19.80;52.80
210;DHT22;90;48.810;9.120;2023-05-15T13:09:33;19.80;55.50
210;DHT22;90;48.810;9.120;2023-05-15T13:12:03;19.60;53.90
210;DHT22;90;48.810;9.120;2023-05-15T13:14:33;19.20;56.10
210;DHT22;90;48.810;9.120;2023-05-15T13:17:01;19.00;57.80
210;DHT22;90;48.810;9.120;2023-05-15T13:19:29;18.80;57.60
210;DHT22;90;48.810;9.120;2023-05-15T13:21:56;18.60;58.10
210;DHT22;90;48.810;9.120;2023-05-15T13:24:24;18.60;59.20
210;DHT22;90;48.810;9.120;2023-05-15T13:26:51;18.50;60.10
210;DHT22;90;48.810;9.120;2023-05-15T13:29:18;18.50;59.20
210;DHT22;90;48.810;9.120;2023-05-15T13:31:44;18.50;59.50
210;DHT22;90;48.810;9.120;2023-05-15T13:34:11;18.60;58.00
210;DHT22;90;48.810;9.120;2023-05-15T13:36:38;18.60;58.50
210;DHT22;90;48.810;9.120;2023-05-15T13:39:05;18.50;59.00
210;DHT22;90;48.810;9.120;2023-05-15T13:41:35;18.50;60.20
210;DHT22;90;48.810;9.120;2023-05-15T13:44:02;18.50;60.20
210;DHT22;90;48.810;9.120;2023-05-15T13:46:29;18.30;61.80
210;DHT22;90;48.810;9.120;2023-05-15T13:48:55;18.20;63.50
210;DHT22;90;48.810;9.120;2023-05-15T13:51:22;18.20;65.30
210;DHT22;90;48.810;9.120;2023-05-15T13:53:49;18.30;66.80
210;DHT22;90;48.810;9.120;2023-05-15T13:56:16;18.20;67.00
210;DHT22;90;48.810;9.120;2023-05-15T13:58:44;18.30;65.90
210;DHT22;90;48.810;9.120;2023-05-15T14:01:11;18.50;66.90
210;DHT22;90;48.810;9.120;2023-05-15T14:03:37;18.60;67.10
210;DHT22;90;48.810;9.120;2023-05-15T14:06:05;18.70;68.30
210;DHT22;90;48.810;9.120;2023-05-15T14:08:32;18.80;69.00
210;DHT22;90;48.810;9.120;2023-05-15T14:11:00;18.80;67.90
210;DHT22;90;48.810;9.120;2023-05-15T14:13:27;18.70;66.20
210;DHT22;90;48.810;9.120;2023-05-15T14:15:57;18.60;66.40
210;DHT22;90;48.810;9.120;2023-05-15T14:18:24;18.60;66.50
210;DHT22;90;48.810;9.120;2023-05-15T14:20:51;18.70;67.00
210;DHT22;90;48.810;9.120;2023-05-15T14:23:17;19.10;67.10
210;DHT22;90;48.810;9.120;2023-05-15T14:25:45;19.20;65.20
210;DHT22;90;48.810;9.120;2023-05-15T14:28:11;19.30;64.80
210;DHT22;90;48.810;9.120;2023-05-15T14:30:38;19.40;65.30
210;DHT22;90;48.810;9.120;2023-05-15T14:33:06;19.50;63.70
210;DHT22;90;48.810;9.120;2023-05-15T14:35:33;19.50;63.00
210;DHT22;90;48.810;9.120;2023-05-15T14:38:00;19.50;60.70
210;DHT22;90;48.810;9.120;2023-05-15T14:40:27;19.90;56.40
210;DHT22;90;48.810;9.120;2023-05-15T14:42:54;20.20;56.20
210;DHT22;90;48.810;9.120;2023-05-15T14:45:21;20.50;54.00
210;DHT22;90;48.810;9.120;2023-05-15T14:47:47;20.40;51.70
210;DHT22;90;48.810;9.120;2023-05-15T14:50:16;20.20;52.50
210;DHT22;90;48.810;9.120;2023-05-15T14:52:43;20.10;52.60
210;DHT22;90;48.810;9.120;2023-05-15T14:55:10;20.40;52.00
210;DHT22;90;48.810;9.120;2023-05-15T14:57:37;20.70;50.60
210;DHT22;90;48.810;9.120;2023-05-15T15:00:05;20.70;50.60
210;DHT22;90;48.810;9.120;2023-05-15T15:02:32;20.30;53.10
210;DHT22;90;48.810;9.120;2023-05-15T15:04:59;19.80;54.80
210;DHT22;90;48.810;9.120;2023-05-15T15:07:28;19.40;56.40
210;DHT22;90;48.810;9.120;2023-05-15T15:09:55;19.20;56.80
210;DHT22;90;48.810;9.120;2023-05-15T15:12:21;18.90;58.30
210;DHT22;90;48.810;9.120;2023-05-15T15:14:48;18.70;57.90
210;DHT22;90;48.810;9.120;2023-05-15T15:17:15;18.50;62.50
210;DHT22;90;48.810;9.120;2023-05-15T15:19:42;18.50;58.30
210;DHT22;90;48.810;9.120;2023-05-15T15:22:09;18.60;64.40
210;DHT22;90;48.810;9.120;2023-05-15T15:24:38;18.50;59.30
210;DHT22;90;48.810;9.120;2023-05-15T15:27:04;18.50;59.40
210;DHT22;90;48.810;9.120;2023-05-15T15:29:31;18.30;59.40
210;DHT22;90;48.810;9.120;2023-05-15T15:31:58;18.20;59.40
210;DHT22;90;48.810;9.120;2023-05-15T15:34:24;18.10;60.00
210;DHT22;90;48.810;9.120;2023-05-15T15:36:51;17.90;61.90
210;DHT22;90;48.810;9.120;2023-05-15T15:39:18;17.70;63.20
210;DHT22;90;48.810;9.120;2023-05-15T15:41:46;17.60;63.60
210;DHT22;90;48.810;9.120;2023-05-15T15:44:13;17.50;64.80
210;DHT22;90;48.810;9.120;2023-05-15T15:46:40;17.40;65.30
210;DHT22;90;48.810;9.120;2023-05-15T15:49:06;17.40;65.50
210;DHT22;90;48.810;9.120;2023-05-15T15:51:33;17.30;65.50
210;DHT22;90;48.810;9.120;2023-05-15T15:54:00;17.20;65.30
210;DHT22;90;48.810;9.120;2023-05-15T15:56:27;17.00;66.30
210;DHT22;90;48.810;9.120;2023-05-15T15:58:55;16.80;65.90
210;DHT22;90;48.810;9.120;2023-05-15T16:01:22;16.70;66.80
210;DHT22;90;48.810;9.120;2023-05-15T16:03:49;16.60;66.80
210;DHT22;90;48.810;9.120;2023-05-15T16:06:15;16.60;67.20
210;DHT22;90;48.810;9.120;2023-05-15T16:08:42;16.60;65.00
210;DHT22;90;48.810;9.120;2023-05-15T16:11:09;16.60;65.40
210;DHT22;90;48.810;9.120;2023-05-15T16:13:36;16.70;65.60
210;DHT22;90;48.810;9.120;2023-05-15T16:16:04;16.60;67.30
210;DHT22;90;48.810;9.120;2023-05-15T16:18:31;16.50;69.70
210;DHT22;90;48.810;9.120;2023-05-15T16:20:57;16.40;70.20
210;DHT22;90;48.810;9.120;2023-05-15T16:23:24;16.10;70.90
210;DHT22;90;48.810;9.120;2023-05-15T16:25:51;16.10;71.10
210;DHT22;90;48.810;9.120;2023-05-15T16:28:18;16.10;71.00
210;DHT22;90;48.810;9.120;2023-05-15T16:30:44;16.00;69.00
210;DHT22;90;48.810;9.120;2023-05-15T16:33:13;16.00;68.00
210;DHT22;90;48.810;9.120;2023-05-15T16:35:41;15.90;67.90
210;DHT22;90;48.810;9.120;2023-05-15T16:38:08;15.80;67.80
210;DHT22;90;48.810;9.120;2023-05-15T16:40:35;15.70;66.90
210;DHT22;90;48.810;9.120;2023-05-15T16:43:01;15.70;68.00
210;DHT22;90;48.810;9.120;2023-05-15T16:45:28;15.70;68.30
210;DHT22;90;48.810;9.120;2023-05-15T16:47:55;15.80;67.80
210;DHT22;90;48.810;9.120;2023-05-15T16:50:23;15.90;68.50
210;DHT22;90;48.810;9.120;2023-05-15T16:52:50;16.00;69.00
210;DHT22;90;48.810;9.120;2023-05-15T16:55:17;16.00;68.60